sensor_id;sensor_type;location;lat;lon;timestamp;P1;durP1;ratioP1;P2;durP2;ratioP2
65613;SDS011;52283;49.292;10.572;2023-02-28T00:01:13;14.15;;;4.25;;
65613;SDS011;52283;49.292;10.572;2023-02-28T00:03:40;16.23;;;5.50;;
65613;SDS011;52283;49.292;10.572;2023-02-28T00:06:07;14.25;;;5.20;;
65613;SDS011;52283;49.292;10.572;2023-02-28T00:08:35;18.58;;;7.03;;
65613;SDS011;52283;49.292;10.572;2023-02-28T00:11:02;7.20;;;2.85;;
65613;SDS011;52283;49.292;10.572;2023-02-28T00:13:30;12.30;;;5.40;;
65613;SDS011;52283;49.292;10.572;2023-02-28T00:15:59;9.73;;;4.05;;
65613;SDS011;52283;49.292;10.572;2023-02-28T00:18:26;6.63;;;2.63;;
65613;SDS011;52283;49.292;10.572;2023-02-28T00:20:53;8.52;;;3.33;;
65613;SDS011;52283;49.292;10.572;2023-02-28T00:23:19;8.82;;;3.35;;
65613;SDS011;52283;49.292;10.572;2023-02-28T00:25:47;9.25;;;4.00;;
65613;SDS011;52283;49.292;10.572;2023-02-28T00:28:14;5.80;;;3.63;;
65613;SDS011;52283;49.292;10.572;2023-02-28T00:30:41;3.55;;;2.10;;
65613;SDS011;52283;49.292;10.572;2023-02-28T00:33:07;3.45;;;2.63;;
65613;SDS011;52283;49.292;10.572;2023-02-28T00:35:34;6.53;;;3.40;;
65613;SDS011;52283;49.292;10.572;2023-02-28T00:38:00;7.68;;;3.25;;
65613;SDS011;52283;49.292;10.572;2023-02-28T00:40:27;6.45;;;2.67;;
65613;SDS011;52283;49.292;10.572;2023-02-28T00:42:55;3.97;;;2.85;;
65613;SDS011;52283;49.292;10.572;2023-02-28T00:45:21;6.15;;;2.10;;
65613;SDS011;52283;49.292;10.572;2023-02-28T00:47:48;2.92;;;2.33;;
65613;SDS011;52283;49.292;10.572;2023-02-28T00:50:15;4.68;;;2.40;;
65613;SDS011;52283;49.292;10.572;2023-02-28T00:52:42;7.90;;;3.13;;
65613;SDS011;52283;49.292;10.572;2023-02-28T00:55:09;2.97;;;2.05;;
65613;SDS011;52283;49.292;10.572;2023-02-28T00:57:35;4.13;;;2.13;;
65613;SDS011;52283;49.292;10.572;2023-02-28T01:00:04;3.85;;;2.15;;
65613;SDS011;52283;49.292;10.572;2023-02-28T01:02:32;2.63;;;1.75;;
65613;SDS011;52283;49.292;10.572;2023-02-28T01:04:58;4.65;;;2.20;;
65613;SDS011;52283;49.292;10.572;2023-02-28T01:07:24;11.43;;;2.60;;
65613;SDS011;52283;49.292;10.572;2023-02-28T01:09:51;7.03;;;2.22;;
65613;SDS011;52283;49.292;10.572;2023-02-28T01:12:17;3.58;;;2.33;;
65613;SDS011;52283;49.292;10.572;2023-02-28T01:14:44;4.22;;;1.95;;
65613;SDS011;52283;49.292;10.572;2023-02-28T01:17:12;5.13;;;2.45;;
65613;SDS011;52283;49.292;10.572;2023-02-28T01:19:38;3.30;;;1.70;;
65613;SDS011;52283;49.292;10.572;2023-02-28T01:22:05;4.00;;;1.70;;
65613;SDS011;52283;49.292;10.572;2023-02-28T01:24:32;3.13;;;2.20;;
65613;SDS011;52283;49.292;10.572;2023-02-28T01:26:58;2.45;;;1.63;;
65613;SDS011;52283;49.292;10.572;2023-02-28T01:29:25;3.92;;;1.83;;
65613;SDS011;52283;49.292;10.572;2023-02-28T01:31:51;5.80;;;2.78;;
65613;SDS011;52283;49.292;10.572;2023-02-28T01:34:19;5.75;;;1.98;;
65613;SDS011;52283;49.292;10.572;2023-02-28T01:36:45;4.13;;;2.65;;
65613;SDS011;52283;49.292;10.572;2023-02-28T01:39:12;5.05;;;2.55;;
65613;SDS011;52283;49.292;10.572;2023-02-28T01:41:39;5.95;;;2.47;;
65613;SDS011;52283;49.292;10.572;2023-02-28T01:44:06;4.05;;;2.58;;
65613;SDS011;52283;49.292;10.572;2023-02-28T01:46:53;5.28;;;2.28;;
65613;SDS011;52283;49.292;10.572;2023-02-28T01:49:21;4.75;;;2.22;;
65613;SDS011;52283;49.292;10.572;2023-02-28T01:51:48;4.95;;;3.15;;
65613;SDS011;52283;49.292;10.572;2023-02-28T01:54:16;6.90;;;2.35;;
65613;SDS011;52283;49.292;10.572;2023-02-28T01:56:47;4.13;;;3.00;;
65613;SDS011;52283;49.292;10.572;2023-02-28T01:59:21;3.53;;;2.45;;
65613;SDS011;52283;49.292;10.572;2023-02-28T02:01:50;2.65;;;2.13;;
65613;SDS011;52283;49.292;10.572;2023-02-28T02:04:17;8.07;;;2.60;;
65613;SDS011;52283;49.292;10.572;2023-02-28T02:06:45;6.15;;;2.90;;
65613;SDS011;52283;49.292;10.572;2023-02-28T02:09:13;4.45;;;2.60;;
65613;SDS011;52283;49.292;10.572;2023-02-28T02:11:40;6.43;;;2.65;;
65613;SDS011;52283;49.292;10.572;2023-02-28T02:14:28;3.65;;;2.72;;
65613;SDS011;52283;49.292;10.572;2023-02-28T02:17:05;5.63;;;2.63;;
65613;SDS011;52283;49.292;10.572;2023-02-28T02:19:52;4.05;;;2.63;;
65613;SDS011;52283;49.292;10.572;2023-02-28T02:23:05;5.57;;;2.70;;
65613;SDS011;52283;49.292;10.572;2023-02-28T02:25:45;7.57;;;2.63;;
65613;SDS011;52283;49.292;10.572;2023-02-28T02:28:21;6.32;;;3.17;;
65613;SDS011;52283;49.292;10.572;2023-02-28T02:31:14;4.57;;;2.47;;
65613;SDS011;52283;49.292;10.572;2023-02-28T02:37:06;4.07;;;2.23;;
65613;SDS011;52283;49.292;10.572;2023-02-28T02:39:38;8.75;;;2.90;;
65613;SDS011;52283;49.292;10.572;2023-02-28T02:42:15;4.13;;;2.25;;
65613;SDS011;52283;49.292;10.572;2023-02-28T02:44:46;4.00;;;2.47;;
65613;SDS011;52283;49.292;10.572;2023-02-28T02:47:19;5.18;;;2.53;;
65613;SDS011;52283;49.292;10.572;2023-02-28T02:49:52;5.13;;;2.63;;
65613;SDS011;52283;49.292;10.572;2023-02-28T02:52:23;5.47;;;2.70;;
65613;SDS011;52283;49.292;10.572;2023-02-28T02:54:55;5.55;;;2.60;;
65613;SDS011;52283;49.292;10.572;2023-02-28T02:57:24;6.40;;;2.47;;
65613;SDS011;52283;49.292;10.572;2023-02-28T02:59:56;7.05;;;3.00;;
65613;SDS011;52283;49.292;10.572;2023-02-28T03:02:24;6.28;;;3.20;;
65613;SDS011;52283;49.292;10.572;2023-02-28T03:04:56;5.88;;;3.30;;
65613;SDS011;52283;49.292;10.572;2023-02-28T03:07:26;4.50;;;2.60;;
65613;SDS011;52283;49.292;10.572;2023-02-28T03:09:52;5.45;;;2.33;;
65613;SDS011;52283;49.292;10.572;2023-02-28T03:12:21;8.57;;;2.90;;
65613;SDS011;52283;49.292;10.572;2023-02-28T03:14:54;5.15;;;2.33;;
65613;SDS011;52283;49.292;10.572;2023-02-28T03:17:47;9.45;;;3.22;;
65613;SDS011;52283;49.292;10.572;2023-02-28T03:20:28;5.90;;;2.45;;
65613;SDS011;52283;49.292;10.572;2023-02-28T03:23:03;6.35;;;2.92;;
65613;SDS011;52283;49.292;10.572;2023-02-28T03:25:42;8.65;;;3.35;;
65613;SDS011;52283;49.292;10.572;2023-02-28T03:28:20;8.13;;;3.30;;
65613;SDS011;52283;49.292;10.572;2023-02-28T03:30:54;4.57;;;2.60;;
65613;SDS011;52283;49.292;10.572;2023-02-28T03:33:26;6.88;;;3.08;;
65613;SDS011;52283;49.292;10.572;2023-02-28T03:35:58;6.57;;;3.08;;
65613;SDS011;52283;49.292;10.572;2023-02-28T03:38:29;5.50;;;2.53;;
65613;SDS011;52283;49.292;10.572;2023-02-28T03:41:01;3.13;;;2.20;;
65613;SDS011;52283;49.292;10.572;2023-02-28T03:43:36;5.95;;;3.13;;
65613;SDS011;52283;49.292;10.572;2023-02-28T03:46:08;10.43;;;4.63;;
65613;SDS011;52283;49.292;10.572;2023-02-28T03:48:39;5.22;;;2.60;;
65613;SDS011;52283;49.292;10.572;2023-02-28T03:51:12;7.30;;;3.15;;
65613;SDS011;52283;49.292;10.572;2023-02-28T03:53:44;4.55;;;2.83;;
65613;SDS011;52283;49.292;10.572;2023-02-28T03:56:15;7.45;;;2.97;;
65613;SDS011;52283;49.292;10.572;2023-02-28T03:58:44;7.80;;;3.65;;
65613;SDS011;52283;49.292;10.572;2023-02-28T04:01:15;7.22;;;3.03;;
65613;SDS011;52283;49.292;10.572;2023-02-28T04:03:46;8.88;;;3.78;;
65613;SDS011;52283;49.292;10.572;2023-02-28T04:06:15;5.13;;;3.63;;
65613;SDS011;52283;49.292;10.572;2023-02-28T04:11:14;10.95;;;3.42;;
65613;SDS011;52283;49.292;10.572;2023-02-28T04:13:46;6.65;;;3.42;;
65613;SDS011;52283;49.292;10.572;2023-02-28T04:16:13;4.85;;;2.95;;
65613;SDS011;52283;49.292;10.572;2023-02-28T04:18:39;5.68;;;2.80;;
65613;SDS011;52283;49.292;10.572;2023-02-28T04:21:07;10.15;;;3.50;;
65613;SDS011;52283;49.292;10.572;2023-02-28T04:23:36;7.32;;;3.63;;
65613;SDS011;52283;49.292;10.572;2023-02-28T04:26:03;5.18;;;2.80;;
65613;SDS011;52283;49.292;10.572;2023-02-28T04:28:30;8.60;;;2.67;;
65613;SDS011;52283;49.292;10.572;2023-02-28T04:30:58;7.68;;;3.38;;
65613;SDS011;52283;49.292;10.572;2023-02-28T04:33:25;9.20;;;3.20;;
65613;SDS011;52283;49.292;10.572;2023-02-28T04:35:57;6.15;;;3.40;;
65613;SDS011;52283;49.292;10.572;2023-02-28T04:38:24;9.60;;;3.60;;
65613;SDS011;52283;49.292;10.572;2023-02-28T04:40:52;7.50;;;3.53;;
65613;SDS011;52283;49.292;10.572;2023-02-28T04:43:19;6.90;;;3.72;;
65613;SDS011;52283;49.292;10.572;2023-02-28T04:45:45;9.70;;;4.00;;
65613;SDS011;52283;49.292;10.572;2023-02-28T04:48:11;4.65;;;2.75;;
65613;SDS011;52283;49.292;10.572;2023-02-28T04:50:38;7.15;;;4.05;;
65613;SDS011;52283;49.292;10.572;2023-02-28T04:53:04;8.15;;;3.92;;
65613;SDS011;52283;49.292;10.572;2023-02-28T04:55:31;5.85;;;3.47;;
65613;SDS011;52283;49.292;10.572;2023-02-28T04:57:59;8.27;;;4.00;;
65613;SDS011;52283;49.292;10.572;2023-02-28T05:00:25;7.40;;;4.00;;
65613;SDS011;52283;49.292;10.572;2023-02-28T05:02:52;5.65;;;3.65;;
65613;SDS011;52283;49.292;10.572;2023-02-28T05:05:18;12.77;;;4.10;;
65613;SDS011;52283;49.292;10.572;2023-02-28T05:07:45;14.90;;;3.70;;
65613;SDS011;52283;49.292;10.572;2023-02-28T05:10:11;7.32;;;3.92;;
65613;SDS011;52283;49.292;10.572;2023-02-28T05:12:38;13.50;;;4.60;;
65613;SDS011;52283;49.292;10.572;2023-02-28T05:15:07;7.75;;;3.83;;
65613;SDS011;52283;49.292;10.572;2023-02-28T05:17:38;9.30;;;4.28;;
65613;SDS011;52283;49.292;10.572;2023-02-28T05:20:05;11.10;;;3.50;;
65613;SDS011;52283;49.292;10.572;2023-02-28T05:22:33;10.57;;;4.60;;
65613;SDS011;52283;49.292;10.572;2023-02-28T05:24:59;9.18;;;3.83;;
65613;SDS011;52283;49.292;10.572;2023-02-28T05:27:26;11.82;;;5.10;;
65613;SDS011;52283;49.292;10.572;2023-02-28T05:29:53;8.88;;;3.78;;
65613;SDS011;52283;49.292;10.572;2023-02-28T05:32:21;7.60;;;4.60;;
65613;SDS011;52283;49.292;10.572;2023-02-28T05:34:48;9.48;;;4.20;;
65613;SDS011;52283;49.292;10.572;2023-02-28T05:37:14;11.07;;;4.88;;
65613;SDS011;52283;49.292;10.572;2023-02-28T05:39:41;15.38;;;4.93;;
65613;SDS011;52283;49.292;10.572;2023-02-28T05:42:08;11.85;;;4.38;;
65613;SDS011;52283;49.292;10.572;2023-02-28T05:44:35;7.93;;;4.53;;
65613;SDS011;52283;49.292;10.572;2023-02-28T05:47:01;10.77;;;5.03;;
65613;SDS011;52283;49.292;10.572;2023-02-28T05:49:30;11.32;;;5.13;;
65613;SDS011;52283;49.292;10.572;2023-02-28T05:51:56;10.30;;;4.32;;
65613;SDS011;52283;49.292;10.572;2023-02-28T05:54:22;8.23;;;4.53;;
65613;SDS011;52283;49.292;10.572;2023-02-28T05:56:49;10.27;;;4.80;;
65613;SDS011;52283;49.292;10.572;2023-02-28T05:59:15;8.68;;;5.13;;
65613;SDS011;52283;49.292;10.572;2023-02-28T06:01:42;10.65;;;4.47;;
65613;SDS011;52283;49.292;10.572;2023-02-28T06:04:13;8.35;;;4.60;;
65613;SDS011;52283;49.292;10.572;2023-02-28T06:06:44;11.27;;;5.32;;
65613;SDS011;52283;49.292;10.572;2023-02-28T06:09:10;10.43;;;5.07;;
65613;SDS011;52283;49.292;10.572;2023-02-28T06:11:37;12.18;;;5.30;;
65613;SDS011;52283;49.292;10.572;2023-02-28T06:14:04;11.43;;;5.72;;
65613;SDS011;52283;49.292;10.572;2023-02-28T06:16:31;13.20;;;5.47;;
65613;SDS011;52283;49.292;10.572;2023-02-28T06:19:00;12.00;;;6.35;;
65613;SDS011;52283;49.292;10.572;2023-02-28T06:21:28;9.35;;;5.15;;
65613;SDS011;52283;49.292;10.572;2023-02-28T06:23:56;17.58;;;7.38;;
65613;SDS011;52283;49.292;10.572;2023-02-28T06:26:23;14.50;;;6.72;;
65613;SDS011;52283;49.292;10.572;2023-02-28T06:28:50;9.65;;;4.97;;
65613;SDS011;52283;49.292;10.572;2023-02-28T06:31:17;13.68;;;4.85;;
65613;SDS011;52283;49.292;10.572;2023-02-28T06:33:44;10.68;;;5.53;;
65613;SDS011;52283;49.292;10.572;2023-02-28T06:36:11;10.23;;;5.03;;
65613;SDS011;52283;49.292;10.572;2023-02-28T06:38:40;10.15;;;5.05;;
65613;SDS011;52283;49.292;10.572;2023-02-28T06:41:08;10.50;;;5.45;;
65613;SDS011;52283;49.292;10.572;2023-02-28T06:43:36;17.90;;;7.13;;
65613;SDS011;52283;49.292;10.572;2023-02-28T06:46:05;10.10;;;5.47;;
65613;SDS011;52283;49.292;10.572;2023-02-28T06:48:33;13.57;;;6.00;;
65613;SDS011;52283;49.292;10.572;2023-02-28T06:51:03;10.00;;;5.35;;
65613;SDS011;52283;49.292;10.572;2023-02-28T06:53:31;11.07;;;5.40;;
65613;SDS011;52283;49.292;10.572;2023-02-28T06:55:57;13.50;;;6.13;;
65613;SDS011;52283;49.292;10.572;2023-02-28T06:58:25;11.60;;;5.60;;
65613;SDS011;52283;49.292;10.572;2023-02-28T07:00:52;10.02;;;5.25;;
65613;SDS011;52283;49.292;10.572;2023-02-28T07:03:19;13.02;;;6.13;;
65613;SDS011;52283;49.292;10.572;2023-02-28T07:05:47;11.95;;;5.65;;
65613;SDS011;52283;49.292;10.572;2023-02-28T07:08:13;13.32;;;5.28;;
65613;SDS011;52283;49.292;10.572;2023-02-28T07:10:40;9.55;;;5.50;;
65613;SDS011;52283;49.292;10.572;2023-02-28T07:13:07;11.10;;;5.75;;
65613;SDS011;52283;49.292;10.572;2023-02-28T07:15:35;11.10;;;5.82;;
65613;SDS011;52283;49.292;10.572;2023-02-28T07:18:02;11.13;;;5.28;;
65613;SDS011;52283;49.292;10.572;2023-02-28T07:20:29;12.45;;;4.78;;
65613;SDS011;52283;49.292;10.572;2023-02-28T07:22:56;8.90;;;5.57;;
65613;SDS011;52283;49.292;10.572;2023-02-28T07:25:22;15.10;;;6.05;;
65613;SDS011;52283;49.292;10.572;2023-02-28T07:27:50;8.77;;;5.38;;
65613;SDS011;52283;49.292;10.572;2023-02-28T07:30:16;10.25;;;5.50;;
65613;SDS011;52283;49.292;10.572;2023-02-28T07:32:45;12.95;;;6.40;;
65613;SDS011;52283;49.292;10.572;2023-02-28T07:35:11;11.70;;;5.95;;
65613;SDS011;52283;49.292;10.572;2023-02-28T07:37:40;16.42;;;7.07;;
65613;SDS011;52283;49.292;10.572;2023-02-28T07:40:07;7.15;;;4.60;;
65613;SDS011;52283;49.292;10.572;2023-02-28T07:42:37;14.35;;;6.63;;
65613;SDS011;52283;49.292;10.572;2023-02-28T07:45:04;12.88;;;6.50;;
65613;SDS011;52283;49.292;10.572;2023-02-28T07:47:32;10.25;;;5.50;;
65613;SDS011;52283;49.292;10.572;2023-02-28T07:50:00;11.40;;;5.93;;
65613;SDS011;52283;49.292;10.572;2023-02-28T07:52:27;13.68;;;5.28;;
65613;SDS011;52283;49.292;10.572;2023-02-28T07:54:53;10.13;;;5.95;;
65613;SDS011;52283;49.292;10.572;2023-02-28T07:57:19;12.35;;;5.07;;
65613;SDS011;52283;49.292;10.572;2023-02-28T07:59:46;15.00;;;6.63;;
65613;SDS011;52283;49.292;10.572;2023-02-28T08:02:13;13.45;;;5.53;;
65613;SDS011;52283;49.292;10.572;2023-02-28T08:04:40;8.23;;;5.05;;
65613;SDS011;52283;49.292;10.572;2023-02-28T08:07:08;12.73;;;5.80;;
65613;SDS011;52283;49.292;10.572;2023-02-28T08:12:04;7.75;;;4.95;;
65613;SDS011;52283;49.292;10.572;2023-02-28T08:14:31;14.30;;;5.28;;
65613;SDS011;52283;49.292;10.572;2023-02-28T08:16:57;11.70;;;5.95;;
65613;SDS011;52283;49.292;10.572;2023-02-28T08:19:27;12.52;;;6.70;;
65613;SDS011;52283;49.292;10.572;2023-02-28T08:21:54;12.15;;;6.20;;
65613;SDS011;52283;49.292;10.572;2023-02-28T08:24:22;15.90;;;8.07;;
65613;SDS011;52283;49.292;10.572;2023-02-28T08:26:49;16.35;;;7.00;;
65613;SDS011;52283;49.292;10.572;2023-02-28T08:29:15;9.98;;;5.50;;
65613;SDS011;52283;49.292;10.572;2023-02-28T08:31:42;11.52;;;5.50;;
65613;SDS011;52283;49.292;10.572;2023-02-28T08:34:09;13.63;;;6.22;;
65613;SDS011;52283;49.292;10.572;2023-02-28T08:36:37;12.40;;;6.03;;
65613;SDS011;52283;49.292;10.572;2023-02-28T08:39:04;12.63;;;5.47;;
65613;SDS011;52283;49.292;10.572;2023-02-28T08:41:33;10.75;;;5.40;;
65613;SDS011;52283;49.292;10.572;2023-02-28T08:43:59;10.50;;;5.10;;
65613;SDS011;52283;49.292;10.572;2023-02-28T08:46:26;11.70;;;6.75;;
65613;SDS011;52283;49.292;10.572;2023-02-28T08:48:53;10.73;;;6.10;;
65613;SDS011;52283;49.292;10.572;2023-02-28T08:51:20;13.05;;;6.70;;
65613;SDS011;52283;49.292;10.572;2023-02-28T08:53:51;15.23;;;6.18;;
65613;SDS011;52283;49.292;10.572;2023-02-28T08:56:18;11.18;;;6.15;;
65613;SDS011;52283;49.292;10.572;2023-02-28T08:58:47;12.63;;;5.93;;
65613;SDS011;52283;49.292;10.572;2023-02-28T09:01:15;13.63;;;6.28;;
65613;SDS011;52283;49.292;10.572;2023-02-28T09:03:43;9.30;;;5.45;;
65613;SDS011;52283;49.292;10.572;2023-02-28T09:06:11;12.55;;;6.72;;
65613;SDS011;52283;49.292;10.572;2023-02-28T09:08:38;19.60;;;6.20;;
65613;SDS011;52283;49.292;10.572;2023-02-28T09:11:05;14.18;;;5.95;;
65613;SDS011;52283;49.292;10.572;2023-02-28T09:13:32;12.52;;;6.65;;
65613;SDS011;52283;49.292;10.572;2023-02-28T09:16:01;11.68;;;6.72;;
65613;SDS011;52283;49.292;10.572;2023-02-28T09:18:30;19.87;;;7.40;;
65613;SDS011;52283;49.292;10.572;2023-02-28T09:20:56;11.80;;;6.10;;
65613;SDS011;52283;49.292;10.572;2023-02-28T09:23:23;11.98;;;6.97;;
65613;SDS011;52283;49.292;10.572;2023-02-28T09:25:51;15.73;;;6.80;;
65613;SDS011;52283;49.292;10.572;2023-02-28T09:28:19;10.77;;;6.85;;
65613;SDS011;52283;49.292;10.572;2023-02-28T09:30:47;13.35;;;7.00;;
65613;SDS011;52283;49.292;10.572;2023-02-28T09:33:17;9.98;;;6.20;;
65613;SDS011;52283;49.292;10.572;2023-02-28T09:35:45;11.13;;;6.03;;
65613;SDS011;52283;49.292;10.572;2023-02-28T09:38:12;11.48;;;6.13;;
65613;SDS011;52283;49.292;10.572;2023-02-28T09:40:41;12.88;;;7.32;;
65613;SDS011;52283;49.292;10.572;2023-02-28T09:43:14;16.45;;;7.53;;
65613;SDS011;52283;49.292;10.572;2023-02-28T09:45:42;12.88;;;6.30;;
65613;SDS011;52283;49.292;10.572;2023-02-28T09:48:15;13.45;;;6.53;;
65613;SDS011;52283;49.292;10.572;2023-02-28T09:50:48;13.02;;;6.65;;
65613;SDS011;52283;49.292;10.572;2023-02-28T09:53:19;11.32;;;6.38;;
65613;SDS011;52283;49.292;10.572;2023-02-28T09:55:48;12.63;;;6.65;;
65613;SDS011;52283;49.292;10.572;2023-02-28T09:58:19;13.23;;;6.45;;
65613;SDS011;52283;49.292;10.572;2023-02-28T10:00:49;11.82;;;7.00;;
65613;SDS011;52283;49.292;10.572;2023-02-28T10:03:27;8.95;;;6.30;;
65613;SDS011;52283;49.292;10.572;2023-02-28T10:05:58;9.73;;;6.20;;
65613;SDS011;52283;49.292;10.572;2023-02-28T10:08:33;9.98;;;5.93;;
65613;SDS011;52283;49.292;10.572;2023-02-28T10:11:07;12.68;;;6.57;;
65613;SDS011;52283;49.292;10.572;2023-02-28T10:13:38;11.38;;;6.35;;
65613;SDS011;52283;49.292;10.572;2023-02-28T10:16:13;14.98;;;6.95;;
65613;SDS011;52283;49.292;10.572;2023-02-28T10:18:45;12.73;;;6.88;;
65613;SDS011;52283;49.292;10.572;2023-02-28T10:23:44;9.23;;;6.22;;
65613;SDS011;52283;49.292;10.572;2023-02-28T10:26:14;14.13;;;8.02;;
65613;SDS011;52283;49.292;10.572;2023-02-28T10:28:43;11.65;;;6.53;;
65613;SDS011;52283;49.292;10.572;2023-02-28T10:31:11;11.45;;;6.57;;
65613;SDS011;52283;49.292;10.572;2023-02-28T10:33:43;12.23;;;6.43;;
65613;SDS011;52283;49.292;10.572;2023-02-28T10:36:12;11.13;;;6.13;;
65613;SDS011;52283;49.292;10.572;2023-02-28T10:38:43;11.45;;;6.80;;
65613;SDS011;52283;49.292;10.572;2023-02-28T10:41:11;12.70;;;7.43;;
65613;SDS011;52283;49.292;10.572;2023-02-28T10:43:39;12.50;;;6.53;;
65613;SDS011;52283;49.292;10.572;2023-02-28T10:46:11;24.17;;;7.78;;
65613;SDS011;52283;49.292;10.572;2023-02-28T10:49:00;10.10;;;6.15;;
65613;SDS011;52283;49.292;10.572;2023-02-28T10:51:34;13.52;;;7.70;;
65613;SDS011;52283;49.292;10.572;2023-02-28T10:54:03;11.18;;;5.55;;
65613;SDS011;52283;49.292;10.572;2023-02-28T10:56:30;12.15;;;6.68;;
65613;SDS011;52283;49.292;10.572;2023-02-28T10:58:58;12.65;;;6.70;;
65613;SDS011;52283;49.292;10.572;2023-02-28T11:01:35;11.80;;;6.68;;
65613;SDS011;52283;49.292;10.572;2023-02-28T11:04:17;10.75;;;6.20;;
65613;SDS011;52283;49.292;10.572;2023-02-28T11:06:46;10.48;;;5.93;;
65613;SDS011;52283;49.292;10.572;2023-02-28T11:09:17;11.10;;;5.43;;
65613;SDS011;52283;49.292;10.572;2023-02-28T11:11:48;9.73;;;6.05;;
65613;SDS011;52283;49.292;10.572;2023-02-28T11:14:18;10.75;;;6.25;;
65613;SDS011;52283;49.292;10.572;2023-02-28T11:16:48;10.40;;;6.78;;
65613;SDS011;52283;49.292;10.572;2023-02-28T11:19:19;7.95;;;5.45;;
65613;SDS011;52283;49.292;10.572;2023-02-28T11:21:51;14.77;;;6.25;;
65613;SDS011;52283;49.292;10.572;2023-02-28T11:24:22;12.05;;;6.80;;
65613;SDS011;52283;49.292;10.572;2023-02-28T11:26:50;12.68;;;6.47;;
65613;SDS011;52283;49.292;10.572;2023-02-28T11:29:18;15.23;;;6.28;;
65613;SDS011;52283;49.292;10.572;2023-02-28T11:34:44;9.05;;;5.30;;
65613;SDS011;52283;49.292;10.572;2023-02-28T11:37:13;7.82;;;5.13;;
65613;SDS011;52283;49.292;10.572;2023-02-28T11:39:42;8.70;;;5.82;;
65613;SDS011;52283;49.292;10.572;2023-02-28T11:42:13;9.95;;;6.43;;
65613;SDS011;52283;49.292;10.572;2023-02-28T11:44:58;11.98;;;6.60;;
65613;SDS011;52283;49.292;10.572;2023-02-28T11:47:38;8.40;;;5.80;;
65613;SDS011;52283;49.292;10.572;2023-02-28T11:50:16;9.40;;;6.22;;
65613;SDS011;52283;49.292;10.572;2023-02-28T11:52:52;12.43;;;6.25;;
65613;SDS011;52283;49.292;10.572;2023-02-28T11:55:20;14.45;;;7.18;;
65613;SDS011;52283;49.292;10.572;2023-02-28T11:58:11;16.40;;;7.38;;
65613;SDS011;52283;49.292;10.572;2023-02-28T12:00:47;12.32;;;6.72;;
65613;SDS011;52283;49.292;10.572;2023-02-28T12:03:28;10.18;;;6.80;;
65613;SDS011;52283;49.292;10.572;2023-02-28T12:06:13;9.60;;;5.43;;
65613;SDS011;52283;49.292;10.572;2023-02-28T12:08:47;10.98;;;6.50;;
65613;SDS011;52283;49.292;10.572;2023-02-28T12:11:24;10.10;;;6.43;;
65613;SDS011;52283;49.292;10.572;2023-02-28T12:14:03;9.90;;;6.03;;
65613;SDS011;52283;49.292;10.572;2023-02-28T12:16:45;11.77;;;6.03;;
65613;SDS011;52283;49.292;10.572;2023-02-28T12:19:19;9.40;;;6.55;;
65613;SDS011;52283;49.292;10.572;2023-02-28T12:22:00;12.50;;;5.75;;
65613;SDS011;52283;49.292;10.572;2023-02-28T12:24:39;12.38;;;6.82;;
65613;SDS011;52283;49.292;10.572;2023-02-28T12:27:16;14.50;;;8.18;;
65613;SDS011;52283;49.292;10.572;2023-02-28T12:29:47;12.98;;;7.75;;
65613;SDS011;52283;49.292;10.572;2023-02-28T12:32:20;12.52;;;7.07;;
65613;SDS011;52283;49.292;10.572;2023-02-28T12:34:51;16.77;;;7.78;;
65613;SDS011;52283;49.292;10.572;2023-02-28T12:37:33;12.13;;;6.80;;
65613;SDS011;52283;49.292;10.572;2023-02-28T12:40:08;16.13;;;8.02;;
65613;SDS011;52283;49.292;10.572;2023-02-28T12:42:39;14.18;;;7.60;;
65613;SDS011;52283;49.292;10.572;2023-02-28T12:45:10;11.98;;;6.60;;
65613;SDS011;52283;49.292;10.572;2023-02-28T12:47:40;12.05;;;6.72;;
65613;SDS011;52283;49.292;10.572;2023-02-28T12:50:09;12.68;;;6.63;;
65613;SDS011;52283;49.292;10.572;2023-02-28T12:52:39;9.80;;;6.82;;
65613;SDS011;52283;49.292;10.572;2023-02-28T12:55:13;11.63;;;7.13;;
65613;SDS011;52283;49.292;10.572;2023-02-28T12:57:48;13.13;;;6.30;;
65613;SDS011;52283;49.292;10.572;2023-02-28T13:00:23;12.77;;;7.40;;
65613;SDS011;52283;49.292;10.572;2023-02-28T13:09:06;10.77;;;6.22;;
65613;SDS011;52283;49.292;10.572;2023-02-28T13:11:39;10.93;;;7.30;;
65613;SDS011;52283;49.292;10.572;2023-02-28T13:14:20;13.18;;;6.78;;
65613;SDS011;52283;49.292;10.572;2023-02-28T13:16:54;11.75;;;6.55;;
65613;SDS011;52283;49.292;10.572;2023-02-28T13:19:23;11.07;;;6.30;;
65613;SDS011;52283;49.292;10.572;2023-02-28T13:21:51;12.32;;;6.82;;
65613;SDS011;52283;49.292;10.572;2023-02-28T13:29:59;13.77;;;7.18;;
65613;SDS011;52283;49.292;10.572;2023-02-28T13:35:14;12.20;;;6.50;;
65613;SDS011;52283;49.292;10.572;2023-02-28T13:38:09;10.00;;;6.03;;
65613;SDS011;52283;49.292;10.572;2023-02-28T13:40:44;11.45;;;7.10;;
65613;SDS011;52283;49.292;10.572;2023-02-28T13:43:11;10.40;;;6.22;;
65613;SDS011;52283;49.292;10.572;2023-02-28T13:45:53;14.48;;;6.72;;
65613;SDS011;52283;49.292;10.572;2023-02-28T13:48:34;11.10;;;6.93;;
65613;SDS011;52283;49.292;10.572;2023-02-28T13:51:38;12.07;;;7.13;;
65613;SDS011;52283;49.292;10.572;2023-02-28T13:54:07;13.73;;;7.43;;
65613;SDS011;52283;49.292;10.572;2023-02-28T13:56:48;12.57;;;6.93;;
65613;SDS011;52283;49.292;10.572;2023-02-28T13:59:25;12.20;;;6.68;;
65613;SDS011;52283;49.292;10.572;2023-02-28T14:02:01;11.05;;;6.25;;
65613;SDS011;52283;49.292;10.572;2023-02-28T14:04:48;11.52;;;6.78;;
65613;SDS011;52283;49.292;10.572;2023-02-28T14:07:23;11.70;;;6.93;;
65613;SDS011;52283;49.292;10.572;2023-02-28T14:09:57;11.20;;;6.55;;
65613;SDS011;52283;49.292;10.572;2023-02-28T14:15:28;13.32;;;6.72;;
65613;SDS011;52283;49.292;10.572;2023-02-28T14:18:03;13.35;;;7.40;;
65613;SDS011;52283;49.292;10.572;2023-02-28T14:20:37;10.45;;;5.90;;
65613;SDS011;52283;49.292;10.572;2023-02-28T14:23:09;11.65;;;6.93;;
65613;SDS011;52283;49.292;10.572;2023-02-28T14:25:45;11.20;;;6.60;;
65613;SDS011;52283;49.292;10.572;2023-02-28T14:28:20;11.18;;;6.57;;
65613;SDS011;52283;49.292;10.572;2023-02-28T14:31:00;17.98;;;8.48;;
65613;SDS011;52283;49.292;10.572;2023-02-28T14:33:41;12.65;;;6.25;;
65613;SDS011;52283;49.292;10.572;2023-02-28T14:36:24;9.70;;;6.10;;
65613;SDS011;52283;49.292;10.572;2023-02-28T14:38:55;11.82;;;6.90;;
65613;SDS011;52283;49.292;10.572;2023-02-28T14:41:24;10.25;;;6.30;;
65613;SDS011;52283;49.292;10.572;2023-02-28T14:43:57;9.70;;;5.88;;
65613;SDS011;52283;49.292;10.572;2023-02-28T14:46:26;12.02;;;5.93;;
65613;SDS011;52283;49.292;10.572;2023-02-28T14:48:56;10.10;;;6.15;;
65613;SDS011;52283;49.292;10.572;2023-02-28T14:51:23;12.63;;;5.95;;
65613;SDS011;52283;49.292;10.572;2023-02-28T14:53:51;9.57;;;5.88;;
65613;SDS011;52283;49.292;10.572;2023-02-28T14:56:23;9.75;;;6.00;;
65613;SDS011;52283;49.292;10.572;2023-02-28T14:58:52;9.73;;;5.43;;
65613;SDS011;52283;49.292;10.572;2023-02-28T15:01:22;11.23;;;6.20;;
65613;SDS011;52283;49.292;10.572;2023-02-28T15:03:56;11.25;;;5.60;;
65613;SDS011;52283;49.292;10.572;2023-02-28T15:06:24;11.77;;;6.40;;
65613;SDS011;52283;49.292;10.572;2023-02-28T15:09:06;11.27;;;6.45;;
65613;SDS011;52283;49.292;10.572;2023-02-28T15:11:33;15.35;;;6.75;;
65613;SDS011;52283;49.292;10.572;2023-02-28T15:14:01;11.73;;;6.10;;
65613;SDS011;52283;49.292;10.572;2023-02-28T15:16:31;13.18;;;6.50;;